sensor_id;sensor_type;location;lat;lon;timestamp;P1;durP1;ratioP1;P2;durP2;ratioP2
50350;SDS011;36250;48.740;22.174;2022-09-02T00:00:34;7.13;;;2.90;;
50350;SDS011;36250;48.740;22.174;2022-09-02T00:02:59;7.15;;;3.15;;
50350;SDS011;36250;48.740;22.174;2022-09-02T00:05:24;5.50;;;2.95;;
50350;SDS011;36250;48.740;22.174;2022-09-02T00:07:50;7.82;;;3.58;;
50350;SDS011;36250;48.740;22.174;2022-09-02T00:10:15;5.97;;;3.10;;
50350;SDS011;36250;48.740;22.174;2022-09-02T00:12:41;5.03;;;3.00;;
50350;SDS011;36250;48.740;22.174;2022-09-02T00:15:06;6.78;;;3.17;;
50350;SDS011;36250;48.740;22.174;2022-09-02T00:17:32;4.25;;;2.83;;
50350;SDS011;36250;48.740;22.174;2022-09-02T00:19:57;6.05;;;2.88;;
50350;SDS011;36250;48.740;22.174;2022-09-02T00:22:22;13.20;;;3.30;;
50350;SDS011;36250;48.740;22.174;2022-09-02T00:24:48;5.15;;;3.10;;
50350;SDS011;36250;48.740;22.174;2022-09-02T00:27:13;4.82;;;2.88;;
50350;SDS011;36250;48.740;22.174;2022-09-02T00:29:39;4.82;;;2.55;;
50350;SDS011;36250;48.740;22.174;2022-09-02T00:32:04;6.13;;;3.35;;
50350;SDS011;36250;48.740;22.174;2022-09-02T00:34:30;4.15;;;2.55;;
50350;SDS011;36250;48.740;22.174;2022-09-02T00:36:56;10.57;;;3.40;;
50350;SDS011;36250;48.740;22.174;2022-09-02T00:39:21;3.40;;;2.38;;
50350;SDS011;36250;48.740;22.174;2022-09-02T00:41:46;6.78;;;3.28;;
50350;SDS011;36250;48.740;22.174;2022-09-02T00:44:13;5.07;;;3.05;;
50350;SDS011;36250;48.740;22.174;2022-09-02T00:46:40;8.20;;;2.97;;
50350;SDS011;36250;48.740;22.174;2022-09-02T00:49:17;6.18;;;2.90;;
50350;SDS011;36250;48.740;22.174;2022-09-02T00:51:52;6.13;;;3.25;;
50350;SDS011;36250;48.740;22.174;2022-09-02T00:54:26;6.93;;;3.22;;
50350;SDS011;36250;48.740;22.174;2022-09-02T00:56:54;6.68;;;2.72;;
50350;SDS011;36250;48.740;22.174;2022-09-02T00:59:34;5.07;;;2.72;;
50350;SDS011;36250;48.740;22.174;2022-09-02T01:02:13;5.00;;;2.72;;
50350;SDS011;36250;48.740;22.174;2022-09-02T01:04:39;9.45;;;3.10;;
50350;SDS011;36250;48.740;22.174;2022-09-02T01:07:06;4.97;;;2.92;;
50350;SDS011;36250;48.740;22.174;2022-09-02T01:09:33;4.72;;;2.70;;
50350;SDS011;36250;48.740;22.174;2022-09-02T01:12:00;6.78;;;2.60;;
50350;SDS011;36250;48.740;22.174;2022-09-02T01:14:27;12.95;;;3.20;;
50350;SDS011;36250;48.740;22.174;2022-09-02T01:16:54;7.50;;;2.83;;
50350;SDS011;36250;48.740;22.174;2022-09-02T01:19:25;6.55;;;3.28;;
50350;SDS011;36250;48.740;22.174;2022-09-02T01:21:53;5.43;;;2.50;;
50350;SDS011;36250;48.740;22.174;2022-09-02T01:24:20;5.78;;;3.25;;
50350;SDS011;36250;48.740;22.174;2022-09-02T01:26:50;5.63;;;2.72;;
50350;SDS011;36250;48.740;22.174;2022-09-02T01:29:16;5.45;;;2.90;;
50350;SDS011;36250;48.740;22.174;2022-09-02T01:31:42;4.47;;;2.92;;
50350;SDS011;36250;48.740;22.174;2022-09-02T01:34:07;3.67;;;2.58;;
50350;SDS011;36250;48.740;22.174;2022-09-02T01:36:36;5.70;;;2.97;;
50350;SDS011;36250;48.740;22.174;2022-09-02T01:39:03;6.18;;;3.17;;
50350;SDS011;36250;48.740;22.174;2022-09-02T01:41:28;4.10;;;3.28;;
50350;SDS011;36250;48.740;22.174;2022-09-02T01:43:53;8.23;;;3.30;;
50350;SDS011;36250;48.740;22.174;2022-09-02T01:46:20;7.85;;;3.15;;
50350;SDS011;36250;48.740;22.174;2022-09-02T01:48:47;6.90;;;3.35;;
50350;SDS011;36250;48.740;22.174;2022-09-02T01:51:14;10.48;;;3.35;;
50350;SDS011;36250;48.740;22.174;2022-09-02T01:53:42;8.48;;;3.30;;
50350;SDS011;36250;48.740;22.174;2022-09-02T01:56:07;6.75;;;2.85;;
50350;SDS011;36250;48.740;22.174;2022-09-02T01:58:32;7.82;;;3.28;;
50350;SDS011;36250;48.740;22.174;2022-09-02T02:00:58;7.75;;;3.08;;
50350;SDS011;36250;48.740;22.174;2022-09-02T02:03:23;7.57;;;3.33;;
50350;SDS011;36250;48.740;22.174;2022-09-02T02:05:49;10.68;;;3.28;;
50350;SDS011;36250;48.740;22.174;2022-09-02T02:08:14;11.32;;;3.30;;
50350;SDS011;36250;48.740;22.174;2022-09-02T02:10:40;8.48;;;3.45;;
50350;SDS011;36250;48.740;22.174;2022-09-02T02:13:07;8.18;;;3.30;;
50350;SDS011;36250;48.740;22.174;2022-09-02T02:15:35;10.60;;;3.78;;
50350;SDS011;36250;48.740;22.174;2022-09-02T02:18:01;6.50;;;3.30;;
50350;SDS011;36250;48.740;22.174;2022-09-02T02:20:27;9.70;;;3.05;;
50350;SDS011;36250;48.740;22.174;2022-09-02T02:22:52;10.35;;;3.72;;
50350;SDS011;36250;48.740;22.174;2022-09-02T02:25:18;20.48;;;4.70;;
50350;SDS011;36250;48.740;22.174;2022-09-02T02:27:43;8.13;;;3.63;;
50350;SDS011;36250;48.740;22.174;2022-09-02T02:30:10;9.63;;;3.25;;
50350;SDS011;36250;48.740;22.174;2022-09-02T02:32:37;7.47;;;3.03;;
50350;SDS011;36250;48.740;22.174;2022-09-02T02:35:03;8.40;;;3.70;;
50350;SDS011;36250;48.740;22.174;2022-09-02T02:37:29;10.55;;;3.60;;
50350;SDS011;36250;48.740;22.174;2022-09-02T02:39:55;10.25;;;3.70;;
50350;SDS011;36250;48.740;22.174;2022-09-02T02:42:20;9.60;;;3.63;;
50350;SDS011;36250;48.740;22.174;2022-09-02T02:44:45;13.50;;;3.97;;
50350;SDS011;36250;48.740;22.174;2022-09-02T02:47:11;5.68;;;4.30;;
50350;SDS011;36250;48.740;22.174;2022-09-02T02:49:40;10.52;;;3.92;;
50350;SDS011;36250;48.740;22.174;2022-09-02T02:52:07;8.63;;;3.40;;
50350;SDS011;36250;48.740;22.174;2022-09-02T02:54:34;9.68;;;3.20;;
50350;SDS011;36250;48.740;22.174;2022-09-02T02:57:00;16.65;;;4.40;;
50350;SDS011;36250;48.740;22.174;2022-09-02T02:59:26;7.35;;;3.78;;
50350;SDS011;36250;48.740;22.174;2022-09-02T03:01:53;7.40;;;3.70;;
50350;SDS011;36250;48.740;22.174;2022-09-02T03:04:18;12.02;;;3.40;;
50350;SDS011;36250;48.740;22.174;2022-09-02T03:06:44;5.63;;;3.13;;
50350;SDS011;36250;48.740;22.174;2022-09-02T03:09:09;7.88;;;3.75;;
50350;SDS011;36250;48.740;22.174;2022-09-02T03:11:35;10.10;;;4.05;;
50350;SDS011;36250;48.740;22.174;2022-09-02T03:14:00;8.30;;;3.60;;
50350;SDS011;36250;48.740;22.174;2022-09-02T03:16:25;12.55;;;4.05;;
50350;SDS011;36250;48.740;22.174;2022-09-02T03:18:51;7.60;;;4.10;;
50350;SDS011;36250;48.740;22.174;2022-09-02T03:21:16;9.15;;;3.45;;
50350;SDS011;36250;48.740;22.174;2022-09-02T03:23:42;7.07;;;2.88;;
50350;SDS011;36250;48.740;22.174;2022-09-02T03:26:13;9.15;;;3.40;;
50350;SDS011;36250;48.740;22.174;2022-09-02T03:28:41;7.80;;;3.60;;
50350;SDS011;36250;48.740;22.174;2022-09-02T03:31:11;10.40;;;3.08;;
50350;SDS011;36250;48.740;22.174;2022-09-02T03:33:38;9.77;;;3.35;;
50350;SDS011;36250;48.740;22.174;2022-09-02T03:36:04;6.25;;;3.47;;
50350;SDS011;36250;48.740;22.174;2022-09-02T03:38:29;10.90;;;4.18;;
50350;SDS011;36250;48.740;22.174;2022-09-02T03:40:54;6.78;;;3.13;;
50350;SDS011;36250;48.740;22.174;2022-09-02T03:43:20;6.47;;;3.25;;
50350;SDS011;36250;48.740;22.174;2022-09-02T03:45:45;4.78;;;3.30;;
50350;SDS011;36250;48.740;22.174;2022-09-02T03:48:11;4.93;;;3.45;;
50350;SDS011;36250;48.740;22.174;2022-09-02T03:50:38;7.53;;;3.50;;
50350;SDS011;36250;48.740;22.174;2022-09-02T03:53:06;5.93;;;3.13;;
50350;SDS011;36250;48.740;22.174;2022-09-02T03:55:32;8.70;;;3.78;;
50350;SDS011;36250;48.740;22.174;2022-09-02T03:57:57;6.65;;;3.58;;
50350;SDS011;36250;48.740;22.174;2022-09-02T04:00:24;10.13;;;3.28;;
50350;SDS011;36250;48.740;22.174;2022-09-02T04:02:53;6.95;;;3.40;;
50350;SDS011;36250;48.740;22.174;2022-09-02T04:05:19;7.32;;;3.63;;
50350;SDS011;36250;48.740;22.174;2022-09-02T04:07:46;9.13;;;3.60;;
50350;SDS011;36250;48.740;22.174;2022-09-02T04:10:11;9.70;;;3.90;;
50350;SDS011;36250;48.740;22.174;2022-09-02T04:12:37;12.07;;;3.47;;
50350;SDS011;36250;48.740;22.174;2022-09-02T04:15:03;11.48;;;4.20;;
50350;SDS011;36250;48.740;22.174;2022-09-02T04:17:30;5.35;;;3.10;;
50350;SDS011;36250;48.740;22.174;2022-09-02T04:19:56;6.88;;;3.38;;
50350;SDS011;36250;48.740;22.174;2022-09-02T04:22:21;5.65;;;3.53;;
50350;SDS011;36250;48.740;22.174;2022-09-02T04:24:46;9.77;;;3.20;;
50350;SDS011;36250;48.740;22.174;2022-09-02T04:27:12;6.78;;;3.22;;
50350;SDS011;36250;48.740;22.174;2022-09-02T04:29:37;6.80;;;3.40;;
50350;SDS011;36250;48.740;22.174;2022-09-02T04:32:02;4.53;;;3.50;;
50350;SDS011;36250;48.740;22.174;2022-09-02T04:34:28;7.07;;;3.42;;
50350;SDS011;36250;48.740;22.174;2022-09-02T04:36:53;5.90;;;3.40;;
50350;SDS011;36250;48.740;22.174;2022-09-02T04:39:19;8.20;;;3.83;;
50350;SDS011;36250;48.740;22.174;2022-09-02T04:41:44;6.65;;;3.60;;
50350;SDS011;36250;48.740;22.174;2022-09-02T04:44:10;8.50;;;3.15;;
50350;SDS011;36250;48.740;22.174;2022-09-02T04:46:35;6.35;;;3.33;;
50350;SDS011;36250;48.740;22.174;2022-09-02T04:49:01;5.53;;;3.20;;
50350;SDS011;36250;48.740;22.174;2022-09-02T04:51:28;4.50;;;2.80;;
50350;SDS011;36250;48.740;22.174;2022-09-02T04:53:53;4.38;;;3.33;;
50350;SDS011;36250;48.740;22.174;2022-09-02T04:56:21;5.35;;;2.90;;
50350;SDS011;36250;48.740;22.174;2022-09-02T04:58:48;4.97;;;2.83;;
50350;SDS011;36250;48.740;22.174;2022-09-02T05:01:16;6.50;;;3.20;;
50350;SDS011;36250;48.740;22.174;2022-09-02T05:03:45;6.50;;;3.13;;
50350;SDS011;36250;48.740;22.174;2022-09-02T05:06:11;5.25;;;3.50;;
50350;SDS011;36250;48.740;22.174;2022-09-02T05:08:39;5.70;;;3.38;;
50350;SDS011;36250;48.740;22.174;2022-09-02T05:11:09;6.10;;;3.40;;
50350;SDS011;36250;48.740;22.174;2022-09-02T05:13:37;8.20;;;3.83;;
50350;SDS011;36250;48.740;22.174;2022-09-02T05:16:04;9.38;;;3.42;;
50350;SDS011;36250;48.740;22.174;2022-09-02T05:18:29;8.63;;;2.97;;
50350;SDS011;36250;48.740;22.174;2022-09-02T05:20:55;5.10;;;2.97;;
50350;SDS011;36250;48.740;22.174;2022-09-02T05:23:20;10.10;;;3.40;;
50350;SDS011;36250;48.740;22.174;2022-09-02T05:25:45;6.82;;;3.63;;
50350;SDS011;36250;48.740;22.174;2022-09-02T05:28:11;9.50;;;3.85;;
50350;SDS011;36250;48.740;22.174;2022-09-02T05:30:37;11.15;;;3.40;;
50350;SDS011;36250;48.740;22.174;2022-09-02T05:33:04;7.55;;;3.50;;
50350;SDS011;36250;48.740;22.174;2022-09-02T05:35:30;6.32;;;3.88;;
50350;SDS011;36250;48.740;22.174;2022-09-02T05:37:55;6.57;;;3.15;;
50350;SDS011;36250;48.740;22.174;2022-09-02T05:40:21;6.82;;;3.05;;
50350;SDS011;36250;48.740;22.174;2022-09-02T05:42:47;6.15;;;3.45;;
50350;SDS011;36250;48.740;22.174;2022-09-02T05:45:12;6.07;;;3.17;;
50350;SDS011;36250;48.740;22.174;2022-09-02T05:47:38;6.03;;;3.55;;
50350;SDS011;36250;48.740;22.174;2022-09-02T05:50:03;8.13;;;3.63;;
50350;SDS011;36250;48.740;22.174;2022-09-02T05:52:29;9.30;;;3.38;;
50350;SDS011;36250;48.740;22.174;2022-09-02T05:54:55;7.05;;;3.88;;
50350;SDS011;36250;48.740;22.174;2022-09-02T05:57:21;3.05;;;2.58;;
50350;SDS011;36250;48.740;22.174;2022-09-02T05:59:47;5.07;;;3.28;;
50350;SDS011;36250;48.740;22.174;2022-09-02T06:02:15;8.13;;;3.50;;
50350;SDS011;36250;48.740;22.174;2022-09-02T06:04:45;9.32;;;3.28;;
50350;SDS011;36250;48.740;22.174;2022-09-02T06:07:14;5.32;;;3.03;;
50350;SDS011;36250;48.740;22.174;2022-09-02T06:09:40;5.00;;;2.95;;
50350;SDS011;36250;48.740;22.174;2022-09-02T06:12:05;5.93;;;3.38;;
50350;SDS011;36250;48.740;22.174;2022-09-02T06:14:32;14.48;;;3.70;;
50350;SDS011;36250;48.740;22.174;2022-09-02T06:16:59;4.28;;;2.83;;
50350;SDS011;36250;48.740;22.174;2022-09-02T06:19:25;6.85;;;3.13;;
50350;SDS011;36250;48.740;22.174;2022-09-02T06:21:54;5.57;;;3.00;;
50350;SDS011;36250;48.740;22.174;2022-09-02T06:24:20;5.45;;;3.15;;
50350;SDS011;36250;48.740;22.174;2022-09-02T06:26:47;6.10;;;3.05;;
50350;SDS011;36250;48.740;22.174;2022-09-02T06:29:13;7.63;;;3.10;;
50350;SDS011;36250;48.740;22.174;2022-09-02T06:31:39;6.40;;;3.33;;
50350;SDS011;36250;48.740;22.174;2022-09-02T06:34:06;5.00;;;3.42;;
50350;SDS011;36250;48.740;22.174;2022-09-02T06:36:31;4.05;;;2.63;;
50350;SDS011;36250;48.740;22.174;2022-09-02T06:38:57;9.23;;;3.22;;
50350;SDS011;36250;48.740;22.174;2022-09-02T06:41:25;4.95;;;2.95;;
50350;SDS011;36250;48.740;22.174;2022-09-02T06:43:54;5.20;;;3.25;;
50350;SDS011;36250;48.740;22.174;2022-09-02T06:46:22;6.15;;;3.40;;
50350;SDS011;36250;48.740;22.174;2022-09-02T06:48:49;8.95;;;3.55;;
50350;SDS011;36250;48.740;22.174;2022-09-02T06:51:16;7.35;;;3.47;;
50350;SDS011;36250;48.740;22.174;2022-09-02T06:53:45;4.63;;;3.30;;
50350;SDS011;36250;48.740;22.174;2022-09-02T06:56:11;5.95;;;3.15;;
50350;SDS011;36250;48.740;22.174;2022-09-02T06:58:36;4.90;;;3.10;;
50350;SDS011;36250;48.740;22.174;2022-09-02T07:01:02;8.18;;;3.03;;
50350;SDS011;36250;48.740;22.174;2022-09-02T07:03:27;10.80;;;3.55;;
50350;SDS011;36250;48.740;22.174;2022-09-02T07:06:11;7.57;;;3.22;;
50350;SDS011;36250;48.740;22.174;2022-09-02T07:08:40;8.57;;;3.10;;
50350;SDS011;36250;48.740;22.174;2022-09-02T07:11:13;4.40;;;3.03;;
50350;SDS011;36250;48.740;22.174;2022-09-02T07:13:47;3.35;;;2.97;;
50350;SDS011;36250;48.740;22.174;2022-09-02T07:16:12;3.92;;;2.40;;
50350;SDS011;36250;48.740;22.174;2022-09-02T07:18:38;5.07;;;3.00;;
50350;SDS011;36250;48.740;22.174;2022-09-02T07:21:03;6.40;;;3.30;;
50350;SDS011;36250;48.740;22.174;2022-09-02T07:23:29;7.60;;;2.85;;
50350;SDS011;36250;48.740;22.174;2022-09-02T07:25:54;2.75;;;2.42;;
50350;SDS011;36250;48.740;22.174;2022-09-02T07:28:20;4.97;;;3.25;;
50350;SDS011;36250;48.740;22.174;2022-09-02T07:30:46;3.90;;;2.78;;
50350;SDS011;36250;48.740;22.174;2022-09-02T07:33:12;7.50;;;2.95;;
50350;SDS011;36250;48.740;22.174;2022-09-02T07:35:41;4.75;;;2.90;;
50350;SDS011;36250;48.740;22.174;2022-09-02T07:38:07;6.72;;;3.00;;
50350;SDS011;36250;48.740;22.174;2022-09-02T07:40:34;5.60;;;2.70;;
50350;SDS011;36250;48.740;22.174;2022-09-02T07:43:00;5.55;;;2.80;;
50350;SDS011;36250;48.740;22.174;2022-09-02T07:45:27;5.93;;;2.40;;
50350;SDS011;36250;48.740;22.174;2022-09-02T07:47:53;7.07;;;3.20;;
50350;SDS011;36250;48.740;22.174;2022-09-02T07:50:19;8.02;;;3.10;;
50350;SDS011;36250;48.740;22.174;2022-09-02T07:52:44;5.55;;;3.10;;
50350;SDS011;36250;48.740;22.174;2022-09-02T07:55:10;7.10;;;3.13;;
50350;SDS011;36250;48.740;22.174;2022-09-02T07:57:36;16.73;;;3.10;;
50350;SDS011;36250;48.740;22.174;2022-09-02T08:00:03;4.93;;;2.97;;
50350;SDS011;36250;48.740;22.174;2022-09-02T08:02:29;4.20;;;2.75;;
50350;SDS011;36250;48.740;22.174;2022-09-02T08:04:54;4.40;;;2.55;;
50350;SDS011;36250;48.740;22.174;2022-09-02T08:07:19;9.05;;;2.40;;
50350;SDS011;36250;48.740;22.174;2022-09-02T08:09:48;7.78;;;2.20;;
50350;SDS011;36250;48.740;22.174;2022-09-02T08:12:14;5.88;;;2.83;;
50350;SDS011;36250;48.740;22.174;2022-09-02T08:14:39;6.93;;;2.40;;
50350;SDS011;36250;48.740;22.174;2022-09-02T08:17:05;4.35;;;2.88;;
50350;SDS011;36250;48.740;22.174;2022-09-02T08:19:30;3.15;;;2.00;;
50350;SDS011;36250;48.740;22.174;2022-09-02T08:22:00;2.72;;;2.20;;
50350;SDS011;36250;48.740;22.174;2022-09-02T08:24:29;5.47;;;2.67;;
50350;SDS011;36250;48.740;22.174;2022-09-02T08:26:55;3.08;;;2.38;;
50350;SDS011;36250;48.740;22.174;2022-09-02T08:29:20;4.60;;;2.83;;
50350;SDS011;36250;48.740;22.174;2022-09-02T08:31:45;4.50;;;2.42;;
50350;SDS011;36250;48.740;22.174;2022-09-02T08:34:11;7.68;;;2.50;;
50350;SDS011;36250;48.740;22.174;2022-09-02T08:36:36;6.13;;;2.95;;
50350;SDS011;36250;48.740;22.174;2022-09-02T08:39:03;5.30;;;2.50;;
50350;SDS011;36250;48.740;22.174;2022-09-02T08:41:45;6.20;;;2.90;;
50350;SDS011;36250;48.740;22.174;2022-09-02T08:44:21;6.15;;;2.80;;
50350;SDS011;36250;48.740;22.174;2022-09-02T08:46:49;5.47;;;2.45;;
50350;SDS011;36250;48.740;22.174;2022-09-02T08:49:23;4.65;;;2.60;;
50350;SDS011;36250;48.740;22.174;2022-09-02T08:51:57;8.73;;;2.90;;
50350;SDS011;36250;48.740;22.174;2022-09-02T08:54:43;9.77;;;2.90;;
50350;SDS011;36250;48.740;22.174;2022-09-02T08:57:12;3.97;;;2.83;;
50350;SDS011;36250;48.740;22.174;2022-09-02T08:59:37;10.35;;;3.45;;
50350;SDS011;36250;48.740;22.174;2022-09-02T09:04:52;7.10;;;3.03;;
50350;SDS011;36250;48.740;22.174;2022-09-02T09:10:58;3.83;;;3.00;;
50350;SDS011;36250;48.740;22.174;2022-09-02T09:21:42;3.55;;;2.58;;
50350;SDS011;36250;48.740;22.174;2022-09-02T09:24:15;4.20;;;2.10;;
50350;SDS011;36250;48.740;22.174;2022-09-02T09:26:45;3.30;;;2.50;;
50350;SDS011;36250;48.740;22.174;2022-09-02T09:29:11;3.10;;;2.20;;
50350;SDS011;36250;48.740;22.174;2022-09-02T09:31:37;3.70;;;2.55;;
50350;SDS011;36250;48.740;22.174;2022-09-02T09:41:58;5.25;;;2.42;;
50350;SDS011;36250;48.740;22.174;2022-09-02T09:47:24;4.03;;;2.58;;
50350;SDS011;36250;48.740;22.174;2022-09-02T09:49:53;6.45;;;2.30;;
50350;SDS011;36250;48.740;22.174;2022-09-02T09:52:37;3.58;;;2.20;;
50350;SDS011;36250;48.740;22.174;2022-09-02T09:55:07;3.60;;;2.40;;
50350;SDS011;36250;48.740;22.174;2022-09-02T09:57:39;3.55;;;2.55;;
50350;SDS011;36250;48.740;22.174;2022-09-02T10:00:26;3.78;;;2.70;;
50350;SDS011;36250;48.740;22.174;2022-09-02T10:02:57;4.78;;;3.22;;
50350;SDS011;36250;48.740;22.174;2022-09-02T10:05:30;8.98;;;2.40;;
50350;SDS011;36250;48.740;22.174;2022-09-02T10:08:07;4.03;;;2.53;;
50350;SDS011;36250;48.740;22.174;2022-09-02T10:10:55;2.45;;;2.20;;
50350;SDS011;36250;48.740;22.174;2022-09-02T10:13:23;2.53;;;2.33;;
50350;SDS011;36250;48.740;22.174;2022-09-02T10:21:12;4.38;;;2.20;;
50350;SDS011;36250;48.740;22.174;2022-09-02T10:24:01;2.40;;;2.05;;
50350;SDS011;36250;48.740;22.174;2022-09-02T10:26:40;4.68;;;2.33;;
50350;SDS011;36250;48.740;22.174;2022-09-02T10:29:20;3.20;;;2.08;;
50350;SDS011;36250;48.740;22.174;2022-09-02T10:32:05;4.85;;;2.10;;
50350;SDS011;36250;48.740;22.174;2022-09-02T10:40:16;3.67;;;2.33;;
50350;SDS011;36250;48.740;22.174;2022-09-02T10:46:00;9.70;;;2.42;;
50350;SDS011;36250;48.740;22.174;2022-09-02T10:51:01;4.25;;;2.15;;
50350;SDS011;36250;48.740;22.174;2022-09-02T10:58:48;5.47;;;2.23;;
50350;SDS011;36250;48.740;22.174;2022-09-02T11:01:19;3.10;;;2.15;;
50350;SDS011;36250;48.740;22.174;2022-09-02T11:06:21;2.28;;;2.00;;
50350;SDS011;36250;48.740;22.174;2022-09-02T11:09:07;19.05;;;2.40;;
50350;SDS011;36250;48.740;22.174;2022-09-02T11:11:39;2.10;;;1.90;;
50350;SDS011;36250;48.740;22.174;2022-09-02T11:17:16;4.30;;;2.33;;
50350;SDS011;36250;48.740;22.174;2022-09-02T11:19:54;4.70;;;2.42;;
50350;SDS011;36250;48.740;22.174;2022-09-02T11:22:44;4.72;;;2.08;;
50350;SDS011;36250;48.740;22.174;2022-09-02T11:27:53;6.10;;;2.70;;
50350;SDS011;36250;48.740;22.174;2022-09-02T11:30:37;5.45;;;2.58;;
50350;SDS011;36250;48.740;22.174;2022-09-02T11:33:23;4.35;;;3.00;;
50350;SDS011;36250;48.740;22.174;2022-09-02T11:35:54;3.42;;;2.80;;
50350;SDS011;36250;48.740;22.174;2022-09-02T11:43:45;9.15;;;2.47;;
50350;SDS011;36250;48.740;22.174;2022-09-02T11:51:49;4.07;;;2.50;;
50350;SDS011;36250;48.740;22.174;2022-09-02T11:54:25;8.68;;;2.42;;
50350;SDS011;36250;48.740;22.174;2022-09-02T11:56:57;2.60;;;2.40;;
50350;SDS011;36250;48.740;22.174;2022-09-02T12:03:17;8.15;;;2.15;;
50350;SDS011;36250;48.740;22.174;2022-09-02T12:13:11;9.50;;;2.05;;
50350;SDS011;36250;48.740;22.174;2022-09-02T12:21:31;4.43;;;2.33;;
50350;SDS011;36250;48.740;22.174;2022-09-02T12:26:25;3.83;;;2.38;;
50350;SDS011;36250;48.740;22.174;2022-09-02T12:28:52;6.47;;;2.60;;
50350;SDS011;36250;48.740;22.174;2022-09-02T12:36:44;6.32;;;2.10;;
50350;SDS011;36250;48.740;22.174;2022-09-02T12:41:49;4.70;;;2.28;;
50350;SDS011;36250;48.740;22.174;2022-09-02T12:49:48;6.28;;;2.92;;
50350;SDS011;36250;48.740;22.174;2022-09-02T12:58:07;9.63;;;2.78;;
50350;SDS011;36250;48.740;22.174;2022-09-02T13:24:02;9.73;;;3.45;;
50350;SDS011;36250;48.740;22.174;2022-09-02T13:32:29;4.80;;;2.97;;
50350;SDS011;36250;48.740;22.174;2022-09-02T13:34:55;4.63;;;2.67;;
50350;SDS011;36250;48.740;22.174;2022-09-02T13:42:50;4.43;;;2.85;;
50350;SDS011;36250;48.740;22.174;2022-09-02T13:45:18;8.15;;;3.13;;
50350;SDS011;36250;48.740;22.174;2022-09-02T13:47:49;5.53;;;3.22;;
50350;SDS011;36250;48.740;22.174;2022-09-02T13:50:23;12.20;;;3.58;;
50350;SDS011;36250;48.740;22.174;2022-09-02T13:52:54;9.37;;;3.53;;
50350;SDS011;36250;48.740;22.174;2022-09-02T13:55:22;3.92;;;3.17;;
50350;SDS011;36250;48.740;22.174;2022-09-02T13:58:03;10.25;;;2.63;;
50350;SDS011;36250;48.740;22.174;2022-09-02T14:00:32;6.57;;;2.90;;
50350;SDS011;36250;48.740;22.174;2022-09-02T14:03:15;10.25;;;2.80;;
50350;SDS011;36250;48.740;22.174;2022-09-02T14:05:43;13.07;;;2.97;;
50350;SDS011;36250;48.740;22.174;2022-09-02T14:08:11;10.00;;;3.88;;
50350;SDS011;36250;48.740;22.174;2022-09-02T14:10:39;11.65;;;3.88;;
50350;SDS011;36250;48.740;22.174;2022-09-02T14:13:06;7.75;;;5.10;;
50350;SDS011;36250;48.740;22.174;2022-09-02T14:15:33;14.38;;;5.22;;
50350;SDS011;36250;48.740;22.174;2022-09-02T14:18:09;5.57;;;3.80;;
50350;SDS011;36250;48.740;22.174;2022-09-02T14:20:39;5.65;;;3.35;;
50350;SDS011;36250;48.740;22.174;2022-09-02T14:23:15;9.43;;;4.05;;
50350;SDS011;36250;48.740;22.174;2022-09-02T14:25:47;4.72;;;3.25;;
50350;SDS011;36250;48.740;22.174;2022-09-02T14:28:22;6.10;;;2.95;;
50350;SDS011;36250;48.740;22.174;2022-09-02T14:30:54;6.40;;;3.13;;
50350;SDS011;36250;48.740;22.174;2022-09-02T14:33:27;9.95;;;3.30;;
50350;SDS011;36250;48.740;22.174;2022-09-02T14:36:02;7.28;;;3.38;;
50350;SDS011;36250;48.740;22.174;2022-09-02T14:38:28;7.13;;;3.10;;
50350;SDS011;36250;48.740;22.174;2022-09-02T14:46:37;6.65;;;3.25;;
50350;SDS011;36250;48.740;22.174;2022-09-02T14:49:10;10.50;;;3.75;;
50350;SDS011;36250;48.740;22.174;2022-09-02T14:51:44;8.07;;;3.95;;
50350;SDS011;36250;48.740;22.174;2022-09-02T14:54:31;12.40;;;4.38;;
50350;SDS011;36250;48.740;22.174;2022-09-02T14:57:00;5.53;;;3.40;;
50350;SDS011;36250;48.740;22.174;2022-09-02T14:59:26;7.95;;;4.22;;
50350;SDS011;36250;48.740;22.174;2022-09-02T15:01:52;7.25;;;4.43;;
50350;SDS011;36250;48.740;22.174;2022-09-02T15:04:20;5.28;;;3.50;;
50350;SDS011;36250;48.740;22.174;2022-09-02T15:06:46;6.03;;;3.63;;
50350;SDS011;36250;48.740;22.174;2022-09-02T15:09:12;8.57;;;3.72;;
50350;SDS011;36250;48.740;22.174;2022-09-02T15:11:43;6.63;;;3.70;;
50350;SDS011;36250;48.740;22.174;2022-09-02T15:14:12;7.38;;;3.08;;
50350;SDS011;36250;48.740;22.174;2022-09-02T15:16:38;9.63;;;4.28;;
50350;SDS011;36250;48.740;22.174;2022-09-02T15:19:03;5.35;;;3.95;;
50350;SDS011;36250;48.740;22.174;2022-09-02T15:21:29;8.57;;;3.05;;
50350;SDS011;36250;48.740;22.174;2022-09-02T15:23:55;10.02;;;3.92;;
50350;SDS011;36250;48.740;22.174;2022-09-02T15:26:20;8.75;;;3.08;;
50350;SDS011;36250;48.740;22.174;2022-09-02T15:28:46;11.18;;;3.10;;
50350;SDS011;36250;48.740;22.174;2022-09-02T15:31:11;8.77;;;3.17;;
50350;SDS011;36250;48.740;22.174;2022-09-02T15:33:36;7.45;;;3.30;;
50350;SDS011;36250;48.740;22.174;2022-09-02T15:36:09;5.65;;;3.38;;
50350;SDS011;36250;48.740;22.174;2022-09-02T15:38:36;11.52;;;3.80;;
50350;SDS011;36250;48.740;22.174;2022-09-02T15:43:43;8.32;;;3.13;;
50350;SDS011;36250;48.740;22.174;2022-09-02T15:46:16;11.60;;;3.38;;
50350;SDS011;36250;48.740;22.174;2022-09-02T15:48:52;6.20;;;3.20;;
50350;SDS011;36250;48.740;22.174;2022-09-02T15:51:18;4.43;;;3.30;;
50350;SDS011;36250;48.740;22.174;2022-09-02T15:53:45;5.32;;;3.17;;
50350;SDS011;36250;48.740;22.174;2022-09-02T15:56:19;13.30;;;3.63;;
50350;SDS011;36250;48.740;22.174;2022-09-02T15:58:46;8.70;;;3.90;;
50350;SDS011;36250;48.740;22.174;2022-09-02T16:01:12;11.77;;;4.00;;
50350;SDS011;36250;48.740;22.174;2022-09-02T16:03:37;6.43;;;3.15;;
50350;SDS011;36250;48.740;22.174;2022-09-02T16:06:04;12.60;;;3.75;;
50350;SDS011;36250;48.740;22.174;2022-09-02T16:08:32;5.93;;;3.75;;
50350;SDS011;36250;48.740;22.174;2022-09-02T16:11:03;6.25;;;3.63;;
50350;SDS011;36250;48.740;22.174;2022-09-02T16:13:29;10.68;;;4.05;;
50350;SDS011;36250;48.740;22.174;2022-09-02T16:15:59;24.80;;;4.57;;
50350;SDS011;36250;48.740;22.174;2022-09-02T16:18:25;7.90;;;4.18;;
50350;SDS011;36250;48.740;22.174;2022-09-02T16:20:50;5.28;;;3.90;;
50350;SDS011;36250;48.740;22.174;2022-09-02T16:23:16;14.85;;;5.13;;
50350;SDS011;36250;48.740;22.174;2022-09-02T16:25:41;9.88;;;4.22;;
50350;SDS011;36250;48.740;22.174;2022-09-02T16:28:06;5.97;;;3.33;;
50350;SDS011;36250;48.740;22.174;2022-09-02T16:30:32;11.30;;;4.65;;
50350;SDS011;36250;48.740;22.174;2022-09-02T16:32:57;8.98;;;4.00;;
50350;SDS011;36250;48.740;22.174;2022-09-02T16:35:22;5.95;;;3.42;;
50350;SDS011;36250;48.740;22.174;2022-09-02T16:37:48;5.10;;;3.40;;
50350;SDS011;36250;48.740;22.174;2022-09-02T16:40:13;5.00;;;3.72;;
50350;SDS011;36250;48.740;22.174;2022-09-02T16:42:45;7.60;;;3.50;;
50350;SDS011;36250;48.740;22.174;2022-09-02T16:45:10;5.15;;;2.92;;
50350;SDS011;36250;48.740;22.174;2022-09-02T16:47:36;4.13;;;3.00;;
50350;SDS011;36250;48.740;22.174;2022-09-02T16:50:01;9.15;;;3.58;;
50350;SDS011;36250;48.740;22.174;2022-09-02T16:52:26;8.13;;;3.35;;
50350;SDS011;36250;48.740;22.174;2022-09-02T16:54:52;9.38;;;4.00;;
50350;SDS011;36250;48.740;22.174;2022-09-02T16:57:17;6.75;;;3.17;;
50350;SDS011;36250;48.740;22.174;2022-09-02T16:59:42;6.13;;;3.10;;
50350;SDS011;36250;48.740;22.174;2022-09-02T17:02:07;7.50;;;3.05;;
50350;SDS011;36250;48.740;22.174;2022-09-02T17:04:33;8.63;;;3.50;;
50350;SDS011;36250;48.740;22.174;2022-09-02T17:06:58;4.55;;;3.22;;